• Join FlightAware (Why Join?)
  • Login
  • US Flag 
06:08PM EDT


 

Airport Tracker/Info


-or-


 

Live Flight TrackerFlight Track Log ✈ N39PH ✈ 05-May-2013 ✈ KDRO - KGUP

Flight Track Log - Related Links

Times and Time Zones

All times are in EDT time to prevent confusion due to time zone crossing. See the N39PH flight status page for this flight to view local times or setup timezone preferences in your user account.

Time Position Orientation Groundspeed Altitude Reporting Facility
EDT Latitude Longitude Course Direction KTS MPH feet Rate Location/Type
08:07AM 37.0700 -107.8122 201° Southwest 182 209 9,100  Level Albuquerque Center
08:08AM 37.0264 -107.8333 201° Southwest 178 205 10,600 1,500 Climbing Albuquerque Center
08:09AM 36.9764 -107.8581 202° Southwest 175 201 12,400 1,500 Climbing Denver Center
08:10AM 36.9369 -107.8858 209° Southwest 173 199 13,900 1,500 Climbing Denver Center
08:11AM 36.8928 -107.9178 210° Southwest 168 193 15,500 1,500 Climbing Denver Center
08:12AM 36.8528 -107.9450 209° Southwest 168 193 16,900 1,140 Climbing Denver Center
08:13AM 36.8108 -107.9711 206° Southwest 173 199 17,800 540 Climbing Denver Center
08:14AM 36.7658 -108.0017 209° Southwest 186 214 18,000  Climbing Denver Center
08:15AM 36.7053 -108.0400 207° Southwest 211 243 17,900  Descending Denver Center
08:16AM 36.6522 -108.0728 206° Southwest 220 253 18,000  Climbing Denver Center
08:17AM 36.5978 -108.1053 206° Southwest 224 258 18,000  Level Denver Center
08:18AM 36.5458 -108.1403 208° Southwest 223 257 18,000  Level Denver Center
08:19AM 36.4836 -108.1794 207° Southwest 224 258 18,000 -60 Level Denver Center
08:20AM 36.4292 -108.2139 207° Southwest 227 261 17,900  Descending Denver Center
08:21AM 36.3747 -108.2478 207° Southwest 228 262 18,000  Climbing Denver Center
08:22AM 36.3122 -108.2867 207° Southwest 225 259 18,000  Level Denver Center
08:23AM 36.2589 -108.3231 209° Southwest 227 261 18,000  Level Denver Center
08:24AM 36.2053 -108.3575 207° Southwest 226 260 18,100  Climbing Denver Center
08:25AM 36.1506 -108.3914 207° Southwest 227 261 18,000 -240 Descending Denver Center
08:26AM 36.0869 -108.4325 208° Southwest 229 264 17,700 -420 Descending Denver Center
08:26AM 36.0783 -108.4389 211° Southwest 228 262 17,500 -1,200 Descending Albuquerque Center
08:27AM 36.0133 -108.4761 205° Southwest 229 264 16,200 -1,200 Descending Albuquerque Center
08:28AM 35.9606 -108.5119 209° Southwest 227 261 15,200 -840 Descending Albuquerque Center
08:29AM 35.9081 -108.5464 208° Southwest 224 258 14,600 -720 Descending Albuquerque Center
08:30AM 35.8556 -108.5797 207° Southwest 222 255 13,800 -840 Descending Albuquerque Center